NCAR-RAP Real-Time Weather Data

Output produced by METARs form (06 May 2021  15:57 UTC)
found at http://weather.rap.ucar.edu/surface/
 
KTUS 061453Z 20003KT 10SM CLR 23/00 A3008 RMK AO2 SLP140 T02330000 51010
KTUS 061353Z 17006KT 10SM CLR 19/00 A3007 RMK AO2 SLP140 T01940000
KTUS 061253Z 14006KT 10SM CLR 17/M02 A3006 RMK AO2 SLP134 T01721017
KTUS 061153Z 16006KT 10SM CLR 17/M03 A3004 RMK AO2 SLP130 T01721028 10261 20172 53006
KTUS 061053Z 15006KT 10SM CLR 18/M01 A3004 RMK AO2 SLP127 T01831011
KTUS 060953Z 19004KT 10SM CLR 19/M01 A3003 RMK AO2 SLP125 T01891011 $
KTUS 060853Z 16004KT 10SM CLR 22/M02 A3003 RMK AO2 SLP121 T02171017 50003 $
KTUS 060753Z 16009KT 10SM CLR 22/M02 A3003 RMK AO2 SLP124 T02221022 $
KTUS 060728Z 14004KT 10SM CLR 23/M03 A3003 RMK AO2 T02281033 $
KTUS 060653Z 23005KT 10SM CLR 24/M02 A3003 RMK AO2 SLP120 T02441022 403560156 $
KTUS 060553Z 26007KT 10SM CLR 26/M06 A3002 RMK AO2 SLP117 T02561056 10356 20256 53019 $
KTUS 060453Z 32007KT 10SM CLR 28/M06 A3000 RMK AO2 SLP109 T02831061 $
KTUS 060353Z 33009KT 10SM CLR 29/M06 A2997 RMK AO2 SLP103 T02941061 $